Time;durP1;ratioP1;P1;durP2;ratioP2;P2;SDS_P1;SDS_P2;PMS_P1;PMS_P2;Temp;Humidity;BMP_temperature;BMP_pressure;BME280_temperature;BME280_humidity;BME280_pressure;Samples;Min_cycle;Max_cycle;Signal;HPM_P1;HPM_P2
2022/10/26 00:01:08;;;;;;;31.87;18.40;;;;;;;7.50;80.16;100614.37;2106900;84;31038;-61
2022/10/26 00:04:10;;;;;;;31.17;18.87;;;;;;;7.47;80.16;100617.13;2106438;84;29398;-59
2022/10/26 00:07:12;;;;;;;30.52;18.00;;;;;;;7.42;80.18;100616.83;2106643;84;30196;-60
2022/10/26 00:10:14;;;;;;;33.02;18.95;;;;;;;7.39;80.13;100614.26;2106812;84;27629;-66
2022/10/26 00:13:15;;;;;;;33.53;18.62;;;;;;;7.37;80.15;100617.88;2106898;84;29101;-65
2022/10/26 00:16:26;;;;;;;35.15;19.42;;;;;;;7.34;80.14;100618.84;2106531;84;31387;-65
2022/10/26 00:19:27;;;;;;;30.60;19.52;;;;;;;7.32;80.23;100619.83;2106782;84;32983;-60
2022/10/26 00:22:28;;;;;;;33.23;18.60;;;;;;;7.28;80.26;100626.58;2106796;84;29688;-60
2022/10/26 00:25:30;;;;;;;38.10;18.57;;;;;;;7.25;80.27;100625.81;2070638;86;27681;-59
2022/10/26 00:28:31;;;;;;;34.50;18.90;;;;;;;7.21;80.27;100633.00;2106837;84;29071;-64
2022/10/26 00:31:34;;;;;;;34.40;17.67;;;;;;;7.18;80.27;100637.12;2106829;84;31168;-61
2022/10/26 00:34:35;;;;;;;33.00;18.75;;;;;;;7.13;80.29;100638.56;2096248;84;33544;-60
2022/10/26 00:37:37;;;;;;;32.28;19.02;;;;;;;7.11;80.34;100644.42;2150227;82;29849;-61
2022/10/26 00:40:40;;;;;;;31.50;17.27;;;;;;;7.08;80.31;100650.28;2145026;81;27702;-62
2022/10/26 00:43:42;;;;;;;28.20;17.55;;;;;;;7.05;80.35;100651.70;2140071;83;29557;-64
2022/10/26 00:46:44;;;;;;;33.40;17.57;;;;;;;7.03;80.38;100644.23;2139885;83;31828;-61
2022/10/26 00:49:47;;;;;;;33.30;19.23;;;;;;;7.00;80.42;100642.52;2140395;83;33328;-61
2022/10/26 00:52:49;;;;;;;26.10;18.00;;;;;;;6.97;80.44;100643.48;2140405;83;29533;-61
2022/10/26 00:55:52;;;;;;;33.63;18.98;;;;;;;6.95;80.46;100645.32;2140003;83;27695;-63
2022/10/26 00:58:55;;;;;;;30.15;18.00;;;;;;;6.93;80.48;100648.95;2140255;83;29083;-60
2022/10/26 01:01:56;;;;;;;29.95;18.73;;;;;;;6.91;80.61;100646.80;2131431;83;32106;-61
2022/10/26 01:04:58;;;;;;;26.48;18.90;;;;;;;6.88;80.61;100635.75;2123538;83;34071;-61
2022/10/26 01:08:00;;;;;;;32.93;18.00;;;;;;;6.86;80.61;100636.72;2123747;83;29347;-62
2022/10/26 01:11:01;;;;;;;28.92;17.55;;;;;;;6.82;80.62;100639.46;2123769;83;27800;-61
2022/10/26 01:14:07;;;;;;;30.27;16.75;;;;;;;6.81;80.61;100632.86;2123702;83;28661;-61
2022/10/26 01:17:20;;;;;;;30.72;16.37;;;;;;;6.78;80.59;100632.95;2123216;83;32325;-62
2022/10/26 01:20:49;;;;;;;29.37;17.85;;;;;;;6.75;80.62;100629.03;2123756;83;34100;-61
2022/10/26 01:24:11;;;;;;;28.12;17.00;;;;;;;6.73;80.59;100634.86;2137374;83;29568;-60
2022/10/26 01:27:34;;;;;;;27.02;17.45;;;;;;;6.68;80.58;100634.55;2140477;83;27634;-65
2022/10/26 01:30:39;;;;;;;27.70;16.10;;;;;;;6.64;80.56;100638.20;2140358;83;29485;-60
2022/10/26 01:33:50;;;;;;;32.17;17.10;;;;;;;6.61;80.66;100638.28;2140499;83;32174;-60
2022/10/26 01:36:55;;;;;;;27.48;16.95;;;;;;;6.58;80.69;100646.35;2139898;83;33400;-60
2022/10/26 01:40:06;;;;;;;27.75;16.85;;;;;;;6.56;80.65;100642.00;2140293;81;30138;-60
2022/10/26 01:43:10;;;;;;;30.00;16.02;;;;;;;6.53;80.66;100636.31;2140434;83;27631;-59
2022/10/26 01:46:12;;;;;;;25.25;16.05;;;;;;;6.49;80.60;100638.16;2140539;83;28629;-60
2022/10/26 01:49:16;;;;;;;29.18;16.55;;;;;;;6.46;80.64;100632.05;2140034;83;31509;-59
2022/10/26 01:52:18;;;;;;;35.50;19.10;;;;;;;6.44;80.74;100625.90;2153618;81;33046;-59
2022/10/26 01:55:51;;;;;;;27.32;17.10;;;;;;;6.42;80.75;100627.28;2177477;81;30434;-58
2022/10/26 01:59:20;;;;;;;29.82;16.85;;;;;;;6.39;80.76;100630.88;2165428;81;27623;-58
2022/10/26 02:03:06;;;;;;;24.20;15.25;;;;;;;6.37;80.85;100638.50;2139880;83;30804;-59
2022/10/26 02:06:28;;;;;;;28.25;16.80;;;;;;;6.33;80.79;100639.48;2140099;83;32367;-61
2022/10/26 02:10:06;;;;;;;28.32;16.12;;;;;;;6.28;80.73;100625.45;2139849;83;33544;-59
2022/10/26 02:13:19;;;;;;;25.80;15.93;;;;;;;6.24;80.82;100625.97;2139579;83;29382;-59
2022/10/26 02:16:34;;;;;;;27.50;16.50;;;;;;;6.21;80.91;100620.72;2138768;83;28310;-58
2022/10/26 02:20:08;;;;;;;31.68;17.55;;;;;;;6.19;80.96;100619.92;2140115;83;29919;-59
2022/10/26 02:23:10;;;;;;;29.98;17.20;;;;;;;6.16;80.96;100617.33;2140287;83;31757;-59
2022/10/26 02:26:14;;;;;;;26.37;16.40;;;;;;;6.13;80.97;100617.41;2140360;83;33712;-59
2022/10/26 02:29:18;;;;;;;26.10;16.95;;;;;;;6.11;80.97;100617.91;2140031;83;30115;-59
2022/10/26 02:32:21;;;;;;;26.40;16.37;;;;;;;6.08;81.04;100616.20;2140368;83;27678;-59
2022/10/26 02:35:27;;;;;;;28.67;17.30;;;;;;;6.05;81.04;100613.63;2140377;83;28662;-59
2022/10/26 02:38:30;;;;;;;27.80;15.08;;;;;;;6.03;81.08;100617.66;2140240;83;31816;-59
2022/10/26 02:41:33;;;;;;;25.48;15.80;;;;;;;6.01;81.08;100620.81;2140007;81;33120;-62
2022/10/26 02:44:50;;;;;;;25.08;16.48;;;;;;;5.99;81.08;100620.38;2139973;83;30514;-59
2022/10/26 02:47:52;;;;;;;28.42;17.45;;;;;;;5.97;81.13;100618.21;2140370;83;27670;-59
2022/10/26 02:51:32;;;;;;;25.05;15.90;;;;;;;5.94;81.12;100621.83;2140034;83;28605;-60
2022/10/26 02:55:07;;;;;;;26.52;16.50;;;;;;;5.92;81.15;100624.55;2140268;83;32147;-59
2022/10/26 02:58:15;;;;;;;21.52;14.18;;;;;;;5.90;81.18;100634.34;2139762;83;33800;-59
2022/10/26 03:01:17;;;;;;;29.80;16.93;;;;;;;5.87;81.13;100630.42;2140252;83;30488;-60
2022/10/26 03:04:20;;;;;;;29.32;16.02;;;;;;;5.84;81.10;100634.48;2140468;83;27692;-60
2022/10/26 03:07:23;;;;;;;23.38;14.98;;;;;;;5.82;81.15;100638.10;2140600;83;28596;-60
2022/10/26 03:10:25;;;;;;;24.35;15.50;;;;;;;5.80;81.12;100643.91;2140094;83;31741;-60
2022/10/26 03:13:27;;;;;;;24.25;16.30;;;;;;;5.76;81.13;100642.64;2140180;83;34300;-60
2022/10/26 03:16:29;;;;;;;27.90;16.00;;;;;;;5.74;81.19;100643.13;2140243;83;30504;-59
2022/10/26 03:19:30;;;;;;;25.32;16.02;;;;;;;5.73;81.23;100640.53;2140665;83;27672;-59
2022/10/26 03:22:31;;;;;;;31.27;21.07;;;;;;;5.72;81.29;100645.42;2140531;83;28686;-60
2022/10/26 03:25:33;;;;;;;31.73;23.20;;;;;;;5.70;81.33;100649.45;2140786;83;30991;-59
2022/10/26 03:28:34;;;;;;;34.03;22.42;;;;;;;5.69;81.44;100654.36;2140611;83;33782;-58
2022/10/26 03:31:35;;;;;;;27.70;19.73;;;;;;;5.68;81.43;100652.61;2140463;83;30502;-57
2022/10/26 03:34:37;;;;;;;35.83;19.95;;;;;;;5.67;81.42;100654.84;2140196;83;27662;-57
2022/10/26 03:37:38;;;;;;;27.27;20.12;;;;;;;5.65;81.46;100652.67;2140554;83;29123;-57
2022/10/26 03:40:40;;;;;;;28.87;20.30;;;;;;;5.63;81.41;100665.98;2142317;82;31385;-57
2022/10/26 03:43:43;;;;;;;27.73;19.17;;;;;;;5.60;81.43;100662.09;2150099;82;28021;-57
2022/10/26 03:46:44;;;;;;;30.50;19.05;;;;;;;5.59;81.46;100660.34;2150658;82;29321;-58
2022/10/26 03:49:45;;;;;;;28.27;19.50;;;;;;;5.57;81.40;100661.27;2150750;82;27674;-58
2022/10/26 03:52:48;;;;;;;37.23;23.60;;;;;;;5.56;81.54;100659.52;2150360;82;29476;-58
2022/10/26 03:55:49;;;;;;;43.68;23.98;;;;;;;5.55;81.52;100659.98;2150207;82;31716;-58
2022/10/26 03:58:50;;;;;;;41.42;28.52;;;;;;;5.53;81.49;100657.81;2150366;82;34147;-58
2022/10/26 04:01:52;;;;;;;39.80;27.00;;;;;;;5.53;81.55;100656.95;2150692;82;29723;-58
2022/10/26 04:04:53;;;;;;;45.78;28.65;;;;;;;5.52;81.61;100660.52;2150662;82;27669;-58
2022/10/26 04:07:57;;;;;;;45.10;30.48;;;;;;;5.51;81.60;100661.42;2150456;82;29277;-62
2022/10/26 04:10:58;;;;;;;47.93;31.77;;;;;;;5.49;81.65;100661.44;2150531;82;31844;-59
2022/10/26 04:14:00;;;;;;;49.73;30.97;;;;;;;5.48;81.67;100659.69;2150230;82;33785;-58
2022/10/26 04:17:03;;;;;;;51.98;34.58;;;;;;;5.48;81.75;100653.94;2150181;82;30161;-58
2022/10/26 04:20:06;;;;;;;47.98;32.98;;;;;;;5.47;81.69;100649.97;2150888;82;27684;-59
2022/10/26 04:23:14;;;;;;;45.00;32.28;;;;;;;5.47;81.71;100660.59;2150551;82;28659;-61
2022/10/26 04:26:15;;;;;;;46.02;31.12;;;;;;;5.45;81.67;100662.44;2150436;82;31035;-59
2022/10/26 04:29:17;;;;;;;42.85;29.63;;;;;;;5.44;81.77;100662.02;2150140;82;33393;-66
2022/10/26 04:32:18;;;;;;;39.73;27.95;;;;;;;5.42;81.77;100657.19;2150749;81;29369;-60
2022/10/26 04:35:19;;;;;;;39.50;25.57;;;;;;;5.42;81.84;100663.83;2150590;82;27569;-60
2022/10/26 04:38:20;;;;;;;35.52;24.47;;;;;;;5.42;81.83;100667.81;2150309;82;28695;-61
2022/10/26 04:41:22;;;;;;;35.80;24.20;;;;;;;5.40;81.79;100665.17;2147234;81;31021;-60
2022/10/26 04:44:23;;;;;;;32.90;22.70;;;;;;;5.38;81.82;100660.34;2140138;83;34139;-59
2022/10/26 04:47:25;;;;;;;31.45;21.95;;;;;;;5.36;81.79;100659.53;2140720;83;29359;-60
2022/10/26 04:50:26;;;;;;;29.50;21.52;;;;;;;5.35;81.77;100663.09;2140700;83;28206;-59
2022/10/26 04:53:28;;;;;;;29.67;20.40;;;;;;;5.33;81.79;100660.92;2140583;83;28729;-59
2022/10/26 04:56:29;;;;;;;30.52;20.70;;;;;;;5.32;81.82;100670.66;2140479;83;31434;-59
2022/10/26 04:59:31;;;;;;;31.17;23.38;;;;;;;5.28;81.85;100665.02;2140268;83;33022;-61
2022/10/26 05:02:32;;;;;;;35.80;22.00;;;;;;;5.27;81.90;100664.59;2140395;83;30269;-59
2022/10/26 05:05:36;;;;;;;34.53;22.87;;;;;;;5.27;81.93;100664.59;2140453;83;28468;-59
2022/10/26 05:08:37;;;;;;;33.73;23.17;;;;;;;5.26;82.00;100671.25;2140726;83;28668;-60
2022/10/26 05:11:39;;;;;;;33.50;23.10;;;;;;;5.26;82.26;100668.16;2140281;83;31060;-59
2022/10/26 05:14:40;;;;;;;31.57;21.73;;;;;;;5.26;82.31;100676.12;2140305;83;33055;-60
2022/10/26 05:17:41;;;;;;;34.15;21.62;;;;;;;5.26;82.21;100675.23;2140285;83;29713;-60
2022/10/26 05:20:44;;;;;;;28.52;20.82;;;;;;;5.23;82.14;100676.19;2140495;83;28071;-59
2022/10/26 05:23:52;;;;;;;31.35;22.55;;;;;;;5.21;82.05;100679.80;2140808;83;28686;-59
2022/10/26 05:26:53;;;;;;;35.20;22.07;;;;;;;5.20;82.10;100680.23;2140013;83;30758;-59
2022/10/26 05:29:55;;;;;;;35.85;22.80;;;;;;;5.19;82.14;100687.78;2140334;83;33386;-62
2022/10/26 05:33:03;;;;;;;34.80;23.80;;;;;;;5.19;82.14;100690.91;2140446;83;29749;-59
2022/10/26 05:36:05;;;;;;;36.80;23.95;;;;;;;5.20;82.42;100689.99;2140486;83;27710;-60
2022/10/26 05:39:07;;;;;;;51.13;32.00;;;;;;;5.20;82.37;100690.85;2140539;83;29119;-62
2022/10/26 05:42:08;;;;;;;53.48;32.30;;;;;;;5.22;82.54;100706.75;2144532;81;32277;-60
2022/10/26 05:45:11;;;;;;;52.15;31.65;;;;;;;5.23;82.73;100700.09;2150436;82;33364;-63
2022/10/26 05:48:13;;;;;;;47.30;30.75;;;;;;;5.24;82.72;100696.53;2150354;82;30114;-59
2022/10/26 05:51:17;;;;;;;49.25;32.03;;;;;;;5.28;82.78;100707.95;2150326;81;27680;-60
2022/10/26 05:54:18;;;;;;;47.90;30.77;;;;;;;5.29;82.85;100704.39;2150676;81;29096;-60
2022/10/26 05:57:21;;;;;;;44.25;28.35;;;;;;;5.32;82.87;100707.85;2150475;82;31029;-60
2022/10/26 06:00:25;;;;;;;46.95;27.67;;;;;;;5.36;82.97;100711.34;2150340;82;32980;-59
2022/10/26 06:03:57;;;;;;;49.50;28.00;;;;;;;5.40;83.22;100706.83;2150491;82;30274;-60
2022/10/26 06:06:59;;;;;;;47.78;27.93;;;;;;;5.42;83.25;100709.86;2150003;82;27647;-62
2022/10/26 06:10:01;;;;;;;45.45;27.27;;;;;;;5.47;83.29;100705.77;2150299;82;29061;-60
2022/10/26 06:13:04;;;;;;;47.35;28.00;;;;;;;5.51;83.39;100707.45;2150331;82;31021;-59
2022/10/26 06:16:37;;;;;;;47.38;29.20;;;;;;;5.56;83.53;100709.56;2150296;82;33028;-60
2022/10/26 06:20:09;;;;;;;50.15;28.95;;;;;;;5.61;83.67;100709.02;2150051;82;29717;-59
2022/10/26 06:23:39;;;;;;;50.43;30.25;;;;;;;5.70;83.75;100723.00;2150409;82;27695;-59
2022/10/26 06:27:09;;;;;;;47.90;30.62;;;;;;;5.76;83.84;100718.41;2150571;82;29050;-61
2022/10/26 06:30:11;;;;;;;59.25;33.98;;;;;;;5.84;83.87;100728.87;2150557;82;31022;-59
2022/10/26 06:33:14;;;;;;;53.98;34.27;;;;;;;5.92;83.95;100728.69;2150010;82;33031;-59
2022/10/26 06:36:25;;;;;;;56.18;35.17;;;;;;;5.98;84.04;100730.33;2149978;82;29555;-60
2022/10/26 06:39:30;;;;;;;60.67;34.63;;;;;;;6.06;84.10;100724.41;2150580;82;27635;-61
2022/10/26 06:42:32;;;;;;;57.78;34.85;;;;;;;6.15;84.25;100728.64;2145572;81;29555;-69
2022/10/26 06:45:34;;;;;;;54.05;35.10;;;;;;;6.23;84.39;100727.54;2140429;83;31833;-60
2022/10/26 06:48:58;;;;;;;56.00;38.02;;;;;;;6.33;84.59;100737.50;2140445;83;34141;-60
2022/10/26 06:52:17;;;;;;;50.08;33.95;;;;;;;6.44;84.67;100741.23;2044918;86;29708;-60
2022/10/26 06:55:19;;;;;;;52.43;34.50;;;;;;;6.54;84.73;100738.73;2032847;87;27686;-60
2022/10/26 06:58:24;;;;;;;56.53;35.63;;;;;;;6.68;84.81;100739.72;2033317;87;28901;-60
2022/10/26 07:01:25;;;;;;;63.90;36.77;;;;;;;6.78;84.85;100741.68;2033366;87;31397;-60
2022/10/26 07:04:26;;;;;;;52.53;35.05;;;;;;;6.91;84.96;100742.20;2033476;87;33340;-64
2022/10/26 07:07:29;;;;;;;56.18;34.65;;;;;;;7.07;85.16;100733.78;2033101;87;29380;-60
2022/10/26 07:10:31;;;;;;;43.45;31.25;;;;;;;7.24;85.41;100731.98;2033372;87;27729;-60
2022/10/26 07:13:32;;;;;;;38.50;26.52;;;;;;;7.45;85.55;100738.47;2033520;87;28484;-60
2022/10/26 07:16:33;;;;;;;46.10;29.05;;;;;;;7.69;86.00;100734.19;2033561;87;31387;-60
2022/10/26 07:19:35;;;;;;;44.60;27.82;;;;;;;7.93;86.09;100732.14;2033188;87;33771;-60
2022/10/26 07:22:36;;;;;;;47.93;28.02;;;;;;;8.20;86.51;100737.05;2039850;86;29365;-60
2022/10/26 07:25:39;;;;;;;53.50;29.00;;;;;;;8.46;86.26;100745.53;2047516;86;27703;-60
2022/10/26 07:28:40;;;;;;;40.63;27.02;;;;;;;8.71;86.13;100735.36;2089987;83;29788;-61
2022/10/26 07:31:42;;;;;;;36.03;24.05;;;;;;;8.94;86.05;100729.67;2140220;83;31393;-60
2022/10/26 07:34:43;;;;;;;36.10;24.18;;;;;;;9.18;85.88;100724.38;2140029;83;34217;-61
2022/10/26 07:37:44;;;;;;;35.58;24.80;;;;;;;9.41;85.92;100729.72;2140187;83;29445;-60
2022/10/26 07:40:46;;;;;;;37.83;23.65;;;;;;;9.65;85.64;100726.16;2140320;83;27612;-61
2022/10/26 07:43:50;;;;;;;26.45;17.50;;;;;;;9.88;85.52;100734.16;2148255;82;30066;-60
2022/10/26 07:46:52;;;;;;;33.30;23.60;;;;;;;10.12;85.43;100735.91;2150181;82;32332;-60
2022/10/26 07:49:53;;;;;;;35.40;22.85;;;;;;;10.36;85.37;100739.38;2150330;82;32963;-61
2022/10/26 07:52:54;;;;;;;34.58;23.42;;;;;;;10.57;85.17;100740.31;2150593;82;29136;-60
2022/10/26 07:55:56;;;;;;;43.42;23.73;;;;;;;10.78;84.88;100734.97;2150246;82;27640;-60
2022/10/26 07:58:58;;;;;;;36.00;23.27;;;;;;;11.01;84.78;100737.09;2150197;82;28765;-60
2022/10/26 08:02:00;;;;;;;36.30;22.77;;;;;;;11.22;84.67;100730.77;2150546;82;31431;-62
2022/10/26 08:05:01;;;;;;;32.42;22.13;;;;;;;11.46;84.64;100731.94;2150531;82;33780;-60
2022/10/26 08:08:04;;;;;;;33.60;22.60;;;;;;;11.67;84.17;100732.73;2150341;82;29729;-60
2022/10/26 08:11:06;;;;;;;37.65;19.90;;;;;;;11.83;83.89;100732.86;2150326;82;28004;-60
2022/10/26 08:14:09;;;;;;;29.00;20.08;;;;;;;12.00;83.58;100737.92;2150076;82;28734;-60
2022/10/26 08:17:11;;;;;;;31.52;20.43;;;;;;;12.13;83.57;100734.17;2150562;82;32255;-60
2022/10/26 08:20:13;;;;;;;29.63;19.10;;;;;;;12.23;83.21;100733.24;2150318;82;32533;-60
2022/10/26 08:23:14;;;;;;;28.57;18.35;;;;;;;12.31;83.31;100733.75;2150412;82;29399;-60
2022/10/26 08:26:17;;;;;;;33.05;18.65;;;;;;;12.40;83.17;100739.14;2150619;82;27666;-60
2022/10/26 08:29:18;;;;;;;35.10;18.52;;;;;;;12.48;82.88;100730.69;2150383;82;29474;-59
2022/10/26 08:32:19;;;;;;;26.05;17.02;;;;;;;12.53;82.58;100728.16;2150515;82;31076;-59
2022/10/26 08:35:21;;;;;;;33.20;16.82;;;;;;;12.60;82.47;100724.19;2150128;82;32964;-60
2022/10/26 08:38:23;;;;;;;23.10;17.07;;;;;;;12.69;82.47;100720.16;2150869;81;29348;-58
2022/10/26 08:41:35;;;;;;;27.13;17.07;;;;;;;12.82;82.64;100727.12;2150499;82;27599;-60
2022/10/26 08:44:45;;;;;;;24.63;16.87;;;;;;;12.91;82.12;100730.66;2175687;80;29505;-61
2022/10/26 08:47:50;;;;;;;37.08;22.40;;;;;;;13.03;82.19;100730.48;2175599;81;31072;-60
2022/10/26 08:50:59;;;;;;;36.40;21.87;;;;;;;13.14;82.01;100735.30;2165691;81;33529;-60
2022/10/26 08:54:06;;;;;;;33.25;19.32;;;;;;;13.26;81.88;100732.89;2154379;81;29378;-63
2022/10/26 08:57:27;;;;;;;32.10;18.45;;;;;;;13.38;81.85;100723.69;2153654;82;27693;-60
2022/10/26 09:00:29;;;;;;;30.55;18.02;;;;;;;13.50;81.47;100732.06;2153904;82;29060;-60
2022/10/26 09:03:31;;;;;;;30.17;19.57;;;;;;;13.62;81.45;100734.56;2153558;82;31076;-59
2022/10/26 09:07:18;;;;;;;24.95;17.32;;;;;;;13.71;81.18;100727.80;2154058;82;33337;-59
2022/10/26 09:10:35;;;;;;;21.85;15.13;;;;;;;13.83;81.30;100734.72;2153626;82;30587;-62
2022/10/26 09:14:15;;;;;;;21.33;13.43;;;;;;;13.96;81.02;100736.70;2153665;82;27538;-60
2022/10/26 09:17:59;;;;;;;18.75;13.03;;;;;;;14.06;80.53;100739.75;2153565;82;29895;-60
2022/10/26 09:21:24;;;;;;;26.70;13.40;;;;;;;14.15;80.47;100741.89;2165195;81;31160;-60
2022/10/26 09:24:32;;;;;;;22.73;13.35;;;;;;;14.25;79.91;100739.08;2173659;81;33039;-71
2022/10/26 09:27:39;;;;;;;22.17;13.13;;;;;;;14.34;79.89;100742.18;2155173;81;29727;-73
2022/10/26 09:30:45;;;;;;;20.82;14.38;;;;;;;14.45;80.01;100747.83;2153654;82;27669;-61
2022/10/26 09:33:47;;;;;;;18.05;13.00;;;;;;;14.50;79.46;100745.72;2153984;82;28645;-61
2022/10/26 09:36:53;;;;;;;17.77;12.28;;;;;;;14.58;79.33;100747.95;2153605;82;31174;-61
2022/10/26 09:40:06;;;;;;;17.62;11.48;;;;;;;14.74;79.07;100743.41;2153739;82;33838;-64
2022/10/26 09:43:18;;;;;;;16.12;11.15;;;;;;;14.74;79.07;100743.41;2144616;82;29694;-61
2022/10/26 09:46:30;;;;;;;15.05;10.15;;;;;;;14.80;78.60;100747.59;2128786;83;27724;-61
2022/10/26 09:49:47;;;;;;;16.55;10.90;;;;;;;14.85;78.59;100744.62;2127339;83;29956;-63
2022/10/26 09:52:48;;;;;;;20.17;10.00;;;;;;;14.94;78.52;100752.63;2117294;83;31130;-63
2022/10/26 09:55:55;;;;;;;19.65;10.60;;;;;;;15.00;78.33;100749.54;2117560;84;32935;-65
2022/10/26 09:59:03;;;;;;;16.90;10.30;;;;;;;15.03;78.14;100754.29;2115959;84;29384;-64
2022/10/26 10:02:37;;;;;;;16.40;10.75;;;;;;;15.07;77.79;100752.27;2117755;84;27844;-62
2022/10/26 10:05:40;;;;;;;20.48;9.50;;;;;;;15.10;77.22;100749.84;2145590;82;29521;-68
2022/10/26 10:08:45;;;;;;;9.93;7.28;;;;;;;15.02;77.41;100738.17;2095043;84;31417;-63
2022/10/26 10:11:54;;;;;;;15.30;8.13;;;;;;;15.21;77.67;100752.77;2081638;84;33929;-66
2022/10/26 10:14:57;;;;;;;12.13;6.90;;;;;;;15.28;76.99;100755.95;2060267;84;29973;-62
2022/10/26 10:17:59;;;;;;;11.00;6.67;;;;;;;15.33;77.08;100757.86;2025399;87;27755;-70
2022/10/26 10:21:04;;;;;;;12.13;6.55;;;;;;;15.40;76.86;100749.78;2060770;86;28112;-73
2022/10/26 10:24:32;;;;;;;8.95;7.17;;;;;;;15.48;76.94;100749.30;2060608;86;31050;-62
2022/10/26 10:27:34;;;;;;;14.05;8.13;;;;;;;15.56;76.47;100744.77;2060770;86;33015;-60
2022/10/26 10:30:38;;;;;;;16.60;8.70;;;;;;;15.58;76.22;100742.84;2066294;86;29788;-61
2022/10/26 10:33:41;;;;;;;20.50;11.57;;;;;;;15.61;76.07;100743.50;2068771;86;27692;-63
2022/10/26 10:36:43;;;;;;;18.77;12.35;;;;;;;15.65;75.84;100747.75;2067592;86;30033;-64
2022/10/26 10:39:45;;;;;;;21.55;14.23;;;;;;;15.69;75.42;100742.16;2068048;86;31097;-62
2022/10/26 10:42:47;;;;;;;19.67;11.97;;;;;;;15.74;75.17;100743.59;2073451;84;32390;-59
2022/10/26 10:45:51;;;;;;;18.25;10.38;;;;;;;15.77;75.53;100747.45;2106121;84;29389;-64
2022/10/26 10:49:01;;;;;;;16.50;9.85;;;;;;;15.84;75.46;100746.56;2106248;84;27627;-64
2022/10/26 10:52:03;;;;;;;14.43;9.48;;;;;;;15.91;75.43;100741.16;2106307;84;28763;-59
2022/10/26 10:55:20;;;;;;;16.32;11.88;;;;;;;16.00;75.41;100745.09;2106321;84;32258;-59
2022/10/26 10:58:51;;;;;;;15.40;8.73;;;;;;;16.06;75.00;100743.83;2106710;84;34112;-57
2022/10/26 11:02:33;;;;;;;11.18;6.50;;;;;;;16.10;74.92;100745.36;2106225;84;30568;-58
2022/10/26 11:06:08;;;;;;;8.83;5.55;;;;;;;16.18;74.77;100744.86;2106347;84;27718;-59
2022/10/26 11:09:15;;;;;;;10.75;4.70;;;;;;;16.24;74.36;100742.61;2106864;84;29151;-60
2022/10/26 11:12:22;;;;;;;8.13;4.55;;;;;;;16.31;74.22;100738.16;2106377;84;31192;-67
2022/10/26 11:15:27;;;;;;;10.82;5.00;;;;;;;16.38;73.92;100744.91;2105564;84;33086;-59
2022/10/26 11:18:40;;;;;;;12.60;4.92;;;;;;;16.42;73.44;100743.70;2160858;81;30069;-60
2022/10/26 11:21:46;;;;;;;6.65;4.58;;;;;;;16.47;73.36;100737.51;2151586;81;28304;-68
2022/10/26 11:24:53;;;;;;;13.35;4.45;;;;;;;16.50;73.27;100734.60;2150394;82;29460;-69
2022/10/26 11:28:02;;;;;;;9.55;4.58;;;;;;;16.55;72.97;100737.84;2150493;82;32997;-61
2022/10/26 11:31:15;;;;;;;7.10;4.22;;;;;;;16.60;72.69;100736.67;2150453;82;33051;-65
2022/10/26 11:34:24;;;;;;;11.33;4.47;;;;;;;16.63;72.40;100731.91;2150163;82;30174;-64
2022/10/26 11:37:46;;;;;;;10.88;4.20;;;;;;;16.67;72.20;100730.73;2149837;82;27592;-69
2022/10/26 11:41:02;;;;;;;6.97;3.55;;;;;;;16.69;72.01;100730.15;2150927;82;28710;-70
2022/10/26 11:44:38;;;;;;;6.95;4.10;;;;;;;16.73;71.70;100724.03;2183675;81;31071;-58
2022/10/26 11:47:51;;;;;;;10.00;3.90;;;;;;;16.75;71.60;100724.80;2187677;81;34180;-59
2022/10/26 11:50:57;;;;;;;7.33;3.05;;;;;;;16.77;71.17;100723.36;2161600;81;29392;-59
2022/10/26 11:54:02;;;;;;;13.60;3.50;;;;;;;16.78;71.08;100722.39;2150118;82;27747;-59
2022/10/26 11:57:05;;;;;;;9.98;2.87;;;;;;;16.80;70.79;100728.53;2150183;82;29347;-58
2022/10/26 12:00:19;;;;;;;6.53;3.22;;;;;;;16.82;70.58;100727.47;2150116;82;32039;-60
2022/10/26 12:03:36;;;;;;;5.60;2.50;;;;;;;16.84;70.43;100723.30;2149829;80;34736;-61
2022/10/26 12:06:37;;;;;;;7.33;3.00;;;;;;;16.88;70.31;100724.82;2150009;82;30208;-59
2022/10/26 12:09:41;;;;;;;7.67;3.98;;;;;;;16.90;70.01;100724.23;2150738;82;27770;-61
2022/10/26 12:12:48;;;;;;;3.63;3.27;;;;;;;16.92;69.72;100721.41;2150708;82;29074;-62
2022/10/26 12:16:06;;;;;;;6.90;2.27;;;;;;;16.95;68.92;100716.70;2149293;81;32374;-63
2022/10/26 12:19:36;;;;;;;5.47;2.45;;;;;;;16.97;68.51;100720.14;2150429;82;33212;-74
2022/10/26 12:22:42;;;;;;;3.55;2.27;;;;;;;17.00;68.92;100717.73;2150172;82;29347;-66
2022/10/26 12:25:43;;;;;;;7.00;2.55;;;;;;;17.02;68.40;100718.48;2042207;86;27723;-67
2022/10/26 12:28:45;;;;;;;10.48;3.52;;;;;;;17.04;68.55;100724.66;2044529;85;30078;-68
2022/10/26 12:31:51;;;;;;;5.40;2.75;;;;;;;17.05;68.21;100721.45;2046631;85;31097;-67
2022/10/26 12:34:57;;;;;;;6.55;3.35;;;;;;;17.05;68.26;100720.95;2035644;85;33144;-63
2022/10/26 12:38:02;;;;;;;5.72;3.17;;;;;;;17.04;67.67;100722.42;2049698;85;30578;-65
2022/10/26 12:41:09;;;;;;;;;;;;;;;17.02;67.60;100719.84;2030249;85;27843;-63
2022/10/26 12:44:36;;;;;;;4.87;2.12;;;;;;;17.04;67.43;100718.37;1992908;87;28778;-62
2022/10/26 12:47:43;;;;;;;4.75;2.50;;;;;;;17.02;67.29;100722.55;1990732;88;31756;-63
2022/10/26 12:50:44;;;;;;;4.20;2.22;;;;;;;17.00;67.17;100720.43;1992236;88;33026;-63
2022/10/26 12:54:17;;;;;;;8.30;2.40;;;;;;;16.98;66.85;100719.67;1992258;87;29397;-63
2022/10/26 12:57:27;;;;;;;5.08;1.87;;;;;;;16.97;66.79;100720.14;1991761;88;27808;-65
2022/10/26 13:00:28;;;;;;;4.78;2.15;;;;;;;16.95;66.64;100719.88;1991419;88;28704;-63
2022/10/26 13:03:50;;;;;;;4.97;2.05;;;;;;;16.92;66.42;100719.58;1991229;88;31063;-64
2022/10/26 13:07:00;;;;;;;5.10;2.42;;;;;;;16.93;66.32;100719.08;1982905;88;32975;-65
2022/10/26 13:10:16;;;;;;;5.85;2.30;;;;;;;16.92;65.47;100708.76;1891762;92;29345;-62
2022/10/26 13:13:21;;;;;;;4.47;1.95;;;;;;;16.89;65.63;100712.14;1889388;92;27727;-64
2022/10/26 13:16:25;;;;;;;3.95;1.90;;;;;;;16.86;65.76;100707.34;1894009;92;28479;-66
2022/10/26 13:19:45;;;;;;;5.60;2.02;;;;;;;16.84;65.31;100709.30;1889948;92;31899;-63
2022/10/26 13:22:47;;;;;;;4.05;2.00;;;;;;;16.82;65.43;100703.12;1936701;89;33857;-63
2022/10/26 13:26:11;;;;;;;6.37;2.55;;;;;;;16.84;64.99;100696.23;2009047;87;30449;-61
2022/10/26 13:29:12;;;;;;;8.53;1.77;;;;;;;16.82;64.99;100704.47;2017422;88;27734;-62
2022/10/26 13:32:13;;;;;;;3.72;1.80;;;;;;;16.81;64.93;100705.44;2017636;88;29685;-62
2022/10/26 13:35:16;;;;;;;6.05;2.00;;;;;;;16.78;64.97;100710.20;2017713;88;32406;-63
2022/10/26 13:38:21;;;;;;;6.50;2.10;;;;;;;16.75;64.79;100703.15;2018074;88;33073;-63
2022/10/26 13:41:37;;;;;;;12.28;2.65;;;;;;;16.73;64.85;100719.97;2017983;88;30494;-66
2022/10/26 13:44:46;;;;;;;6.55;2.00;;;;;;;16.71;64.93;100707.91;2018148;87;27728;-66
2022/10/26 13:48:14;;;;;;;6.67;2.87;;;;;;;16.71;64.61;100716.53;2103280;83;29680;-64
2022/10/26 13:51:22;;;;;;;4.25;1.77;;;;;;;16.69;64.64;100716.62;2132621;83;30858;-64
2022/10/26 13:54:45;;;;;;;3.83;2.20;;;;;;;16.67;64.28;100718.56;2140618;83;32967;-64
2022/10/26 13:58:20;;;;;;;6.85;2.10;;;;;;;16.66;64.42;100730.85;2138170;83;30511;-65
2022/10/26 14:01:24;;;;;;;5.08;2.67;;;;;;;16.61;64.62;100723.06;2140207;83;27649;-65
2022/10/26 14:04:27;;;;;;;9.30;2.40;;;;;;;16.56;64.26;100723.34;2134688;83;28650;-67
2022/10/26 14:07:56;;;;;;;6.45;2.35;;;;;;;16.51;64.27;100720.11;2133028;83;32336;-66
2022/10/26 14:10:58;;;;;;;7.17;2.72;;;;;;;16.47;64.40;100719.93;2133429;83;33635;-68
2022/10/26 14:14:01;;;;;;;5.40;3.27;;;;;;;16.45;64.63;100715.61;2133372;83;29338;-66
2022/10/26 14:17:04;;;;;;;3.72;2.30;;;;;;;16.40;64.50;100714.55;2133148;83;27647;-67
2022/10/26 14:20:09;;;;;;;5.35;2.30;;;;;;;16.37;64.44;100715.63;2133297;83;28684;-65
2022/10/26 14:23:36;;;;;;;6.30;1.80;;;;;;;16.33;64.55;100715.45;2136419;83;31426;-66